Time;durP1;ratioP1;P1;durP2;ratioP2;P2;SDS_P1;SDS_P2;PMS_P1;PMS_P2;Temp;Humidity;BMP_temperature;BMP_pressure;BME280_temperature;BME280_humidity;BME280_pressure;Samples;Min_cycle;Max_cycle;Signal;HPM_P1;HPM_P2
2022/12/22 03:26:56;;;;;;;5.40;3.13;;;;;;;;;;5115492;28;20054;-77
2022/12/22 03:29:22;;;;;;;5.25;3.25;;;;;;;;;;5114983;28;20454;-77
2022/12/22 03:31:47;;;;;;;5.05;3.15;;;;;;;;;;5115337;28;20035;-77
2022/12/22 03:34:12;;;;;;;4.65;2.83;;;;;;;;;;5097524;28;20035;-77
2022/12/22 03:36:38;;;;;;;6.15;3.05;;;;;;;;;;5097406;28;20085;-77
2022/12/22 03:39:03;;;;;;;7.70;3.35;;;;;;;;;;5097505;28;20114;-77
2022/12/22 03:46:56;;;;;;;5.95;3.03;;;;;;;;;;5115655;28;20097;-77
2022/12/22 03:49:22;;;;;;;6.18;3.65;;;;;;;;;;5114251;28;20478;-77
2022/12/22 03:51:49;;;;;;;6.15;3.30;;;;;;;;;;5114321;28;20026;-77
2022/12/22 03:54:16;;;;;;;7.43;3.30;;;;;;;;;;5115437;28;20034;-77
2022/12/22 03:56:42;;;;;;;6.00;3.33;;;;;;;;;;5114432;28;20016;-77
2022/12/22 03:59:08;;;;;;;6.97;3.42;;;;;;;;;;5096998;28;20079;-77
2022/12/22 04:01:39;;;;;;;6.05;3.60;;;;;;;;;;5097305;28;20097;-77
2022/12/22 04:04:04;;;;;;;5.15;3.35;;;;;;;;;;5114386;28;20015;-77
2022/12/22 04:06:30;;;;;;;6.60;3.72;;;;;;;;;;5115203;28;20037;-77
2022/12/22 04:08:55;;;;;;;5.97;3.50;;;;;;;;;;5114272;28;20035;-77
2022/12/22 04:14:04;;;;;;;4.68;3.38;;;;;;;;;;5114306;28;20070;-77
2022/12/22 04:16:30;;;;;;;10.57;3.70;;;;;;;;;;5114948;28;20478;-77
2022/12/22 04:18:56;;;;;;;5.47;3.65;;;;;;;;;;5096605;28;20034;-77
2022/12/22 04:21:22;;;;;;;5.78;3.58;;;;;;;;;;5114029;28;20482;-76
2022/12/22 04:23:50;;;;;;;7.32;3.80;;;;;;;;;;5113871;28;20111;-77
2022/12/22 04:26:19;;;;;;;4.10;3.25;;;;;;;;;;5114787;28;20027;-77
2022/12/22 04:28:44;;;;;;;7.63;4.07;;;;;;;;;;5113819;28;20031;-77
2022/12/22 04:31:10;;;;;;;7.28;3.88;;;;;;;;;;5113489;28;20024;-77
2022/12/22 04:33:35;;;;;;;7.05;3.67;;;;;;;;;;5114575;28;20126;-77
2022/12/22 04:36:01;;;;;;;6.03;3.65;;;;;;;;;;5113615;28;20557;-77
2022/12/22 04:38:26;;;;;;;5.85;3.80;;;;;;;;;;5113327;28;20028;-77
2022/12/22 04:40:51;;;;;;;5.50;3.83;;;;;;;;;;5096127;28;20051;-78
2022/12/22 04:43:17;;;;;;;5.80;4.00;;;;;;;;;;5114676;28;20043;-77
2022/12/22 04:45:43;;;;;;;4.50;3.55;;;;;;;;;;5113422;28;20023;-77
2022/12/22 04:48:08;;;;;;;5.28;3.97;;;;;;;;;;5114632;28;20036;-77
2022/12/22 04:50:33;;;;;;;5.65;3.92;;;;;;;;;;5113057;28;20039;-76
2022/12/22 04:52:59;;;;;;;5.15;3.80;;;;;;;;;;5114316;28;20023;-77
2022/12/22 04:55:24;;;;;;;6.10;3.97;;;;;;;;;;5112865;28;20028;-77
2022/12/22 04:57:49;;;;;;;6.03;3.97;;;;;;;;;;5095982;28;20036;-77
2022/12/22 05:00:15;;;;;;;4.95;3.83;;;;;;;;;;5095814;28;20131;-77
2022/12/22 05:02:41;;;;;;;6.00;3.90;;;;;;;;;;5096655;28;20039;-77
2022/12/22 05:05:07;;;;;;;7.70;4.07;;;;;;;;;;5113592;28;20553;-77
2022/12/22 05:07:32;;;;;;;4.85;4.10;;;;;;;;;;5096244;28;20038;-77
2022/12/22 05:09:57;;;;;;;4.55;3.90;;;;;;;;;;5114453;28;20054;-76
2022/12/22 05:15:07;;;;;;;5.10;4.25;;;;;;;;;;5114419;28;20069;-77
2022/12/22 05:17:32;;;;;;;8.68;4.88;;;;;;;;;;5114207;28;20031;-76
2022/12/22 05:19:58;;;;;;;9.40;4.35;;;;;;;;;;5114139;28;20135;-75
2022/12/22 05:22:23;;;;;;;7.53;4.45;;;;;;;;;;5114011;28;20032;-74
2022/12/22 05:24:48;;;;;;;9.15;4.18;;;;;;;;;;5112446;28;20027;-75
2022/12/22 05:27:14;;;;;;;11.98;4.38;;;;;;;;;;5112344;28;20023;-74
2022/12/22 05:29:39;;;;;;;5.03;3.67;;;;;;;;;;5113542;28;20114;-76
2022/12/22 05:32:05;;;;;;;8.80;4.28;;;;;;;;;;5112993;28;20032;-77
2022/12/22 05:34:30;;;;;;;13.18;4.55;;;;;;;;;;5112297;28;20038;-76
2022/12/22 05:36:55;;;;;;;14.00;5.05;;;;;;;;;;5112097;28;20027;-75
2022/12/22 05:39:21;;;;;;;25.40;5.82;;;;;;;;;;5112164;28;20057;-74
2022/12/22 05:41:46;;;;;;;17.88;5.35;;;;;;;;;;5113102;28;20104;-75
2022/12/22 05:44:12;;;;;;;12.77;5.43;;;;;;;;;;5113362;28;20040;-75
2022/12/22 05:46:37;;;;;;;13.93;5.55;;;;;;;;;;5095198;28;20031;-74
2022/12/22 05:49:02;;;;;;;15.65;4.97;;;;;;;;;;5111715;28;20027;-75
2022/12/22 05:51:28;;;;;;;18.20;4.95;;;;;;;;;;5097108;28;20059;-75
2022/12/22 05:53:53;;;;;;;207.48;28.08;;;;;;;;;;5091344;28;20062;-75
2022/12/22 05:56:19;;;;;;;109.65;22.33;;;;;;;;;;5092590;28;20118;-75
2022/12/22 05:58:44;;;;;;;71.72;15.98;;;;;;;;;;5092726;28;20501;-76
2022/12/22 06:01:09;;;;;;;61.22;14.07;;;;;;;;;;5093170;28;20077;-75
2022/12/22 06:03:35;;;;;;;57.50;12.32;;;;;;;;;;5092758;28;20387;-76
2022/12/22 06:06:00;;;;;;;49.33;11.40;;;;;;;;;;5091582;28;20028;-75
2022/12/22 06:08:26;;;;;;;36.25;10.32;;;;;;;;;;5092505;28;20382;-75
2022/12/22 06:10:56;;;;;;;35.63;10.60;;;;;;;;;;5091502;28;20027;-76
2022/12/22 06:13:22;;;;;;;23.75;8.60;;;;;;;;;;5092113;28;20089;-75
2022/12/22 06:15:48;;;;;;;32.15;8.00;;;;;;;;;;5091951;28;20470;-75
2022/12/22 06:18:13;;;;;;;23.52;7.80;;;;;;;;;;5075395;28;20120;-75
2022/12/22 06:20:38;;;;;;;21.63;6.90;;;;;;;;;;5093516;28;20505;-75
2022/12/22 06:23:04;;;;;;;22.20;6.70;;;;;;;;;;5093496;28;20032;-75
2022/12/22 06:25:29;;;;;;;20.05;6.43;;;;;;;;;;5093161;28;20024;-76
2022/12/22 06:27:55;;;;;;;16.75;5.57;;;;;;;;;;5093786;28;20032;-75
2022/12/22 06:30:20;;;;;;;16.98;6.80;;;;;;;;;;5092215;28;20086;-75
2022/12/22 06:32:45;;;;;;;16.52;6.28;;;;;;;;;;5094108;28;20040;-75
2022/12/22 06:35:11;;;;;;;16.20;5.47;;;;;;;;;;5093559;28;20039;-75
2022/12/22 06:37:36;;;;;;;13.07;5.78;;;;;;;;;;5091748;28;20364;-75
2022/12/22 06:40:03;;;;;;;12.57;5.63;;;;;;;;;;5093274;28;20032;-75
2022/12/22 06:45:12;;;;;;;9.52;5.05;;;;;;;;;;5091982;28;20032;-75
2022/12/22 06:47:37;;;;;;;9.23;4.80;;;;;;;;;;5093176;28;20036;-75
2022/12/22 06:50:03;;;;;;;9.45;4.53;;;;;;;;;;5092977;28;20103;-75
2022/12/22 06:52:29;;;;;;;8.98;4.85;;;;;;;;;;5091928;28;20372;-75
2022/12/22 06:54:54;;;;;;;11.10;4.70;;;;;;;;;;5092895;28;20028;-76
2022/12/22 06:57:19;;;;;;;10.27;4.75;;;;;;;;;;5075186;28;20032;-75
2022/12/22 06:59:45;;;;;;;9.77;4.60;;;;;;;;;;5074606;28;20410;-75
2022/12/22 07:02:10;;;;;;;11.02;5.05;;;;;;;;;;5094978;28;20024;-75
2022/12/22 07:04:36;;;;;;;8.25;4.68;;;;;;;;;;5095206;28;20043;-75
2022/12/22 07:07:01;;;;;;;10.20;5.00;;;;;;;;;;5095179;28;20032;-75
2022/12/22 07:09:27;;;;;;;9.88;4.38;;;;;;;;;;5096691;28;20027;-75
2022/12/22 07:11:52;;;;;;;8.48;4.97;;;;;;;;;;5096254;28;20031;-75
2022/12/22 07:14:17;;;;;;;10.13;4.82;;;;;;;;;;5096172;28;20498;-75
2022/12/22 07:16:43;;;;;;;8.43;4.97;;;;;;;;;;5096132;28;20066;-75
2022/12/22 07:19:08;;;;;;;8.32;5.05;;;;;;;;;;5096375;28;20055;-75
2022/12/22 07:21:34;;;;;;;10.57;5.05;;;;;;;;;;5096351;28;20031;-76
2022/12/22 07:23:59;;;;;;;11.18;5.82;;;;;;;;;;5095598;28;20032;-75
2022/12/22 07:26:24;;;;;;;7.35;4.72;;;;;;;;;;5094733;28;20193;-76
2022/12/22 07:28:50;;;;;;;8.27;5.22;;;;;;;;;;5096194;28;20467;-75
2022/12/22 07:31:16;;;;;;;6.72;4.97;;;;;;;;;;5096047;28;20028;-76
2022/12/22 07:33:41;;;;;;;7.13;5.32;;;;;;;;;;5094683;28;20471;-76
2022/12/22 07:36:09;;;;;;;7.85;5.35;;;;;;;;;;5095992;28;20028;-75
2022/12/22 07:38:37;;;;;;;10.95;5.68;;;;;;;;;;5095970;28;20413;-75
2022/12/22 07:42:43;;;;;;;8.63;5.28;;;;;;;;;;5077403;28;20047;-75
2022/12/22 07:43:50;;;;;;;8.32;5.55;;;;;;;;;;5095552;28;20383;-75
2022/12/22 07:46:16;;;;;;;9.57;5.68;;;;;;;;;;5094601;28;20048;-75
2022/12/22 07:51:25;;;;;;;8.10;5.68;;;;;;;;;;5095473;28;20085;-75
2022/12/22 07:53:50;;;;;;;9.70;5.07;;;;;;;;;;5095001;28;20436;-75
2022/12/22 07:56:16;;;;;;;9.85;5.80;;;;;;;;;;5095245;28;20183;-75
2022/12/22 07:58:41;;;;;;;9.20;5.93;;;;;;;;;;5095383;28;20078;-75
2022/12/22 08:01:06;;;;;;;8.23;5.70;;;;;;;;;;5093873;28;20089;-76
2022/12/22 08:03:32;;;;;;;9.68;5.88;;;;;;;;;;5094078;28;20592;-76
2022/12/22 08:05:57;;;;;;;8.27;5.65;;;;;;;;;;5093876;28;20024;-76
2022/12/22 08:08:22;;;;;;;8.20;5.60;;;;;;;;;;5095206;28;20084;-76
2022/12/22 08:10:48;;;;;;;8.93;5.45;;;;;;;;;;5093832;28;20035;-76
2022/12/22 08:13:13;;;;;;;7.25;5.80;;;;;;;;;;5093690;28;20085;-76
2022/12/22 08:15:39;;;;;;;8.63;5.20;;;;;;;;;;5095251;28;20111;-76
2022/12/22 08:18:04;;;;;;;7.70;5.40;;;;;;;;;;5095239;28;20032;-76
2022/12/22 08:20:29;;;;;;;8.20;5.68;;;;;;;;;;5095185;28;20467;-76
2022/12/22 08:22:56;;;;;;;9.85;5.63;;;;;;;;;;5094871;28;20060;-76
2022/12/22 08:25:21;;;;;;;8.77;5.82;;;;;;;;;;5093541;28;20022;-76
2022/12/22 08:27:49;;;;;;;7.93;5.18;;;;;;;;;;5094807;28;20111;-76
2022/12/22 08:30:14;;;;;;;9.10;5.80;;;;;;;;;;5094030;28;20070;-76
2022/12/22 08:32:40;;;;;;;8.15;6.13;;;;;;;;;;5095624;28;20063;-76
2022/12/22 08:35:07;;;;;;;9.57;5.30;;;;;;;;;;5093389;28;20034;-76
2022/12/22 08:37:39;;;;;;;6.97;4.97;;;;;;;;;;5093329;28;20090;-76
2022/12/22 08:40:07;;;;;;;8.70;5.57;;;;;;;;;;5093339;28;20493;-76
2022/12/22 08:42:32;;;;;;;8.40;5.30;;;;;;;;;;5093195;28;20048;-76
2022/12/22 08:44:58;;;;;;;15.00;5.47;;;;;;;;;;5093616;28;20111;-75
2022/12/22 08:47:23;;;;;;;7.05;4.90;;;;;;;;;;5094678;28;20078;-76
2022/12/22 08:49:49;;;;;;;7.43;5.20;;;;;;;;;;5094468;28;20107;-76
2022/12/22 08:52:15;;;;;;;8.30;4.82;;;;;;;;;;5093202;28;20039;-76
2022/12/22 08:54:40;;;;;;;9.98;5.35;;;;;;;;;;5093358;28;20024;-76
2022/12/22 08:57:05;;;;;;;7.60;5.57;;;;;;;;;;5076033;28;20028;-76
2022/12/22 08:59:31;;;;;;;7.13;4.60;;;;;;;;;;5092994;28;20024;-76
2022/12/22 09:01:56;;;;;;;8.00;5.25;;;;;;;;;;5094223;28;20073;-76
2022/12/22 09:04:24;;;;;;;7.45;5.00;;;;;;;;;;5094000;28;20031;-76
2022/12/22 09:06:50;;;;;;;6.88;4.55;;;;;;;;;;5093407;28;20074;-76
2022/12/22 09:09:16;;;;;;;7.72;5.30;;;;;;;;;;5092791;28;20494;-76
2022/12/22 09:11:42;;;;;;;9.77;5.20;;;;;;;;;;5094236;28;20028;-76
2022/12/22 09:14:09;;;;;;;7.47;5.00;;;;;;;;;;5093935;28;20467;-75
2022/12/22 09:16:34;;;;;;;7.43;5.13;;;;;;;;;;5092855;28;20024;-76
2022/12/22 09:19:00;;;;;;;8.40;4.80;;;;;;;;;;5092974;28;20036;-75
2022/12/22 09:21:26;;;;;;;7.53;5.05;;;;;;;;;;5094365;28;20032;-76
2022/12/22 09:23:53;;;;;;;7.32;4.60;;;;;;;;;;5093661;28;20032;-76
2022/12/22 09:26:20;;;;;;;7.03;4.70;;;;;;;;;;5093676;28;20031;-76
2022/12/22 09:28:45;;;;;;;6.90;4.85;;;;;;;;;;5092521;28;20020;-75
2022/12/22 09:31:11;;;;;;;8.20;4.70;;;;;;;;;;5093752;28;20078;-76
2022/12/22 09:33:36;;;;;;;6.22;4.35;;;;;;;;;;5075688;28;20490;-75
2022/12/22 09:36:09;;;;;;;6.15;4.15;;;;;;;;;;5093589;28;20421;-76
2022/12/22 09:38:36;;;;;;;6.15;4.55;;;;;;;;;;5092354;28;20089;-76
2022/12/22 09:41:20;;;;;;;6.55;4.22;;;;;;;;;;5092210;28;20458;-76
2022/12/22 09:43:45;;;;;;;;;;;;;;;;;;5093135;28;20034;-76
2022/12/22 09:46:25;;;;;;;6.53;4.18;;;;;;;;;;5093813;28;20302;-76
2022/12/22 09:48:52;;;;;;;7.55;4.43;;;;;;;;;;5093518;28;20035;-76
2022/12/22 09:51:18;;;;;;;7.47;4.65;;;;;;;;;;5092554;28;20028;-76
2022/12/22 09:53:45;;;;;;;5.70;4.15;;;;;;;;;;5092606;28;20086;-76
2022/12/22 09:56:13;;;;;;;6.20;4.00;;;;;;;;;;5093650;28;20024;-76
2022/12/22 09:58:39;;;;;;;5.55;3.95;;;;;;;;;;5092211;28;20065;-75
2022/12/22 10:01:04;;;;;;;6.13;4.18;;;;;;;;;;5075169;28;20479;-76
2022/12/22 10:03:51;;;;;;;5.50;3.80;;;;;;;;;;5093441;28;20391;-76
2022/12/22 10:06:20;;;;;;;5.28;3.60;;;;;;;;;;5092078;28;20110;-76
2022/12/22 10:08:45;;;;;;;5.30;3.92;;;;;;;;;;5091962;28;20122;-76
2022/12/22 10:11:16;;;;;;;5.97;3.97;;;;;;;;;;5093619;28;20110;-76
2022/12/22 10:13:42;;;;;;;6.13;3.97;;;;;;;;;;5092291;28;20028;-76
2022/12/22 10:16:22;;;;;;;5.47;3.38;;;;;;;;;;5092028;28;20032;-76
2022/12/22 10:19:15;;;;;;;5.55;3.58;;;;;;;;;;5093205;28;20103;-76
2022/12/22 10:21:40;;;;;;;5.60;3.50;;;;;;;;;;5088879;28;20363;-76
2022/12/22 10:24:27;;;;;;;5.32;3.50;;;;;;;;;;5092018;28;20062;-76
2022/12/22 10:26:57;;;;;;;3.90;2.97;;;;;;;;;;5091963;28;20017;-76
2022/12/22 10:29:22;;;;;;;4.07;3.17;;;;;;;;;;5092279;28;20458;-76
2022/12/22 10:32:01;;;;;;;4.53;2.90;;;;;;;;;;5092151;28;20035;-76
2022/12/22 10:34:26;;;;;;;4.57;3.00;;;;;;;;;;5092169;28;20455;-76
2022/12/22 10:36:55;;;;;;;4.38;2.92;;;;;;;;;;5094918;28;20059;-76
2022/12/22 10:39:29;;;;;;;4.55;2.92;;;;;;;;;;5078940;28;20077;-76
2022/12/22 10:42:00;;;;;;;4.07;2.90;;;;;;;;;;5096641;28;20043;-75
2022/12/22 10:44:27;;;;;;;6.18;3.47;;;;;;;;;;5096176;28;20108;-75
2022/12/22 10:46:55;;;;;;;3.33;2.67;;;;;;;;;;5095876;28;20065;-75
2022/12/22 10:49:35;;;;;;;4.82;3.35;;;;;;;;;;5095500;28;20438;-75
2022/12/22 10:52:33;;;;;;;3.20;2.53;;;;;;;;;;5096603;28;20016;-75
2022/12/22 10:55:25;;;;;;;3.35;2.50;;;;;;;;;;5051871;28;20043;-75
2022/12/22 10:57:50;;;;;;;3.75;2.47;;;;;;;;;;5095363;28;20016;-75
2022/12/22 11:00:30;;;;;;;4.50;2.45;;;;;;;;;;5096484;28;20032;-75
2022/12/22 11:02:57;;;;;;;3.03;2.22;;;;;;;;;;5095784;28;20032;-75
2022/12/22 11:05:23;;;;;;;3.97;2.47;;;;;;;;;;5095301;28;20070;-75
2022/12/22 11:07:49;;;;;;;3.97;2.40;;;;;;;;;;5078296;28;20051;-75
2022/12/22 11:10:22;;;;;;;3.70;2.13;;;;;;;;;;5095037;28;20077;-75
2022/12/22 11:13:12;;;;;;;2.97;2.30;;;;;;;;;;5096433;28;20031;-75
2022/12/22 11:16:03;;;;;;;2.95;2.08;;;;;;;;;;5096657;28;20111;-76
2022/12/22 11:18:47;;;;;;;2.97;2.20;;;;;;;;;;5077410;28;20055;-75
2022/12/22 11:21:24;;;;;;;4.10;2.15;;;;;;;;;;5096453;28;20028;-76
2022/12/22 11:24:04;;;;;;;4.28;2.33;;;;;;;;;;5096616;28;20123;-75
2022/12/22 11:26:53;;;;;;;3.03;2.30;;;;;;;;;;5095942;28;20020;-75
2022/12/22 11:29:57;;;;;;;4.60;1.80;;;;;;;;;;5096068;28;20020;-75
2022/12/22 11:32:55;;;;;;;2.00;1.70;;;;;;;;;;5090040;28;20040;-76
2022/12/22 11:35:58;;;;;;;4.30;2.10;;;;;;;;;;5050815;28;20268;-75
2022/12/22 11:38:45;;;;;;;3.58;1.83;;;;;;;;;;5094566;28;20024;-75
2022/12/22 11:41:29;;;;;;;2.13;1.60;;;;;;;;;;5094548;28;20027;-76
2022/12/22 11:43:57;;;;;;;4.90;2.17;;;;;;;;;;5095637;28;20048;-76
2022/12/22 11:46:39;;;;;;;8.63;2.70;;;;;;;;;;5095299;28;20475;-76
2022/12/22 11:49:16;;;;;;;5.30;2.45;;;;;;;;;;5094553;28;20070;-77
2022/12/22 11:52:00;;;;;;;5.60;2.67;;;;;;;;;;5094858;28;20078;-76
2022/12/22 11:55:02;;;;;;;6.47;3.00;;;;;;;;;;5095192;28;20593;-77
2022/12/22 11:57:38;;;;;;;11.77;3.05;;;;;;;;;;5095490;28;20063;-76
2022/12/22 12:00:12;;;;;;;5.95;2.67;;;;;;;;;;5095638;28;20020;-76
2022/12/22 12:02:43;;;;;;;9.98;2.50;;;;;;;;;;5094658;28;20085;-76
2022/12/22 12:05:28;;;;;;;6.00;2.70;;;;;;;;;;5095307;28;20031;-76
2022/12/22 12:08:07;;;;;;;6.40;2.60;;;;;;;;;;5094278;28;20020;-76
2022/12/22 12:10:38;;;;;;;6.35;2.78;;;;;;;;;;5094226;28;20016;-76
2022/12/22 12:13:46;;;;;;;5.82;2.38;;;;;;;;;;5095312;28;20023;-76
2022/12/22 12:16:30;;;;;;;6.53;2.45;;;;;;;;;;5095526;28;20131;-76
2022/12/22 12:19:21;;;;;;;6.25;2.25;;;;;;;;;;5094922;28;20096;-76
2022/12/22 12:21:50;;;;;;;6.10;2.22;;;;;;;;;;5094938;28;20024;-76
2022/12/22 12:24:42;;;;;;;4.65;2.17;;;;;;;;;;5093648;28;20043;-76
2022/12/22 12:27:36;;;;;;;4.80;2.22;;;;;;;;;;5095034;28;20023;-76
2022/12/22 12:30:05;;;;;;;5.13;2.42;;;;;;;;;;5095001;28;20028;-76
2022/12/22 12:32:39;;;;;;;5.00;2.40;;;;;;;;;;5093486;28;20032;-77
2022/12/22 12:35:27;;;;;;;5.88;2.17;;;;;;;;;;5076543;28;20481;-77
2022/12/22 12:37:57;;;;;;;5.65;2.38;;;;;;;;;;5081840;28;20040;-76
2022/12/22 12:40:52;;;;;;;5.68;2.55;;;;;;;;;;5093235;28;20103;-76
2022/12/22 12:43:18;;;;;;;4.88;2.65;;;;;;;;;;5080004;28;20091;-76
2022/12/22 12:45:45;;;;;;;4.13;2.50;;;;;;;;;;5093565;28;20044;-76
2022/12/22 12:48:23;;;;;;;4.18;2.70;;;;;;;;;;5093221;28;20489;-76
2022/12/22 12:50:51;;;;;;;5.47;2.60;;;;;;;;;;5093045;28;20047;-76
2022/12/22 12:53:19;;;;;;;4.03;2.60;;;;;;;;;;5093201;28;20024;-76
2022/12/22 12:55:53;;;;;;;5.85;2.83;;;;;;;;;;5094567;28;20023;-76
2022/12/22 12:58:48;;;;;;;6.00;2.40;;;;;;;;;;5093913;28;20421;-76
2022/12/22 13:01:17;;;;;;;4.35;2.38;;;;;;;;;;5076280;28;20048;-76
2022/12/22 13:03:43;;;;;;;5.25;2.53;;;;;;;;;;5094259;28;20029;-76
2022/12/22 13:06:10;;;;;;;3.88;2.33;;;;;;;;;;5076143;28;20020;-76
2022/12/22 13:09:15;;;;;;;4.50;2.35;;;;;;;;;;5093098;28;20138;-76
2022/12/22 13:11:41;;;;;;;2.80;2.20;;;;;;;;;;5092015;28;20539;-76
2022/12/22 13:14:06;;;;;;;4.55;2.55;;;;;;;;;;5093996;28;20044;-76
2022/12/22 13:16:34;;;;;;;4.28;2.35;;;;;;;;;;5092595;28;20039;-76
2022/12/22 13:19:03;;;;;;;3.10;2.13;;;;;;;;;;5092650;28;20020;-76
2022/12/22 13:21:36;;;;;;;3.70;2.38;;;;;;;;;;5092816;28;20429;-76
2022/12/22 13:24:14;;;;;;;5.85;2.72;;;;;;;;;;5092885;28;20031;-76
2022/12/22 13:26:41;;;;;;;3.72;2.63;;;;;;;;;;5092468;28;20486;-76
2022/12/22 13:29:14;;;;;;;2.75;2.45;;;;;;;;;;5075625;28;20579;-76
2022/12/22 13:31:40;;;;;;;3.90;2.70;;;;;;;;;;5092692;28;20028;-77
2022/12/22 13:34:20;;;;;;;4.78;2.42;;;;;;;;;;5093861;28;20470;-76
2022/12/22 13:36:48;;;;;;;4.57;2.70;;;;;;;;;;5093287;28;20043;-77
2022/12/22 13:39:14;;;;;;;3.05;2.75;;;;;;;;;;5092358;28;20020;-76
2022/12/22 13:41:41;;;;;;;4.45;3.13;;;;;;;;;;5093331;28;20023;-77
2022/12/22 13:44:10;;;;;;;4.68;3.00;;;;;;;;;;5093811;28;20401;-77
2022/12/22 13:46:36;;;;;;;6.57;2.90;;;;;;;;;;5075509;28;20114;-76
2022/12/22 13:49:03;;;;;;;8.00;2.80;;;;;;;;;;5092297;28;20438;-77
2022/12/22 13:51:35;;;;;;;3.85;2.83;;;;;;;;;;5092634;28;20065;-76
2022/12/22 13:54:03;;;;;;;4.55;2.90;;;;;;;;;;5093425;28;20031;-76
2022/12/22 13:56:50;;;;;;;6.65;3.20;;;;;;;;;;5092206;28;20071;-76
2022/12/22 13:59:31;;;;;;;3.58;2.80;;;;;;;;;;5093452;28;20119;-76
2022/12/22 14:02:21;;;;;;;6.93;2.92;;;;;;;;;;5093486;28;20355;-76
2022/12/22 14:05:07;;;;;;;4.85;2.90;;;;;;;;;;5092962;28;20071;-76
2022/12/22 14:07:33;;;;;;;7.78;3.28;;;;;;;;;;5092464;28;20020;-77
2022/12/22 14:09:58;;;;;;;6.25;3.28;;;;;;;;;;5075392;28;20028;-76
2022/12/22 14:12:26;;;;;;;6.97;2.95;;;;;;;;;;5097427;28;20070;-76
2022/12/22 14:14:53;;;;;;;4.07;2.90;;;;;;;;;;5096274;28;20030;-76
2022/12/22 14:17:25;;;;;;;8.70;3.38;;;;;;;;;;5096598;28;20074;-76
2022/12/22 14:19:56;;;;;;;10.20;3.22;;;;;;;;;;5079217;28;20051;-77
2022/12/22 14:22:37;;;;;;;5.28;3.20;;;;;;;;;;5097385;28;20110;-77
2022/12/22 14:25:14;;;;;;;15.60;3.05;;;;;;;;;;5096199;28;20073;-77
2022/12/22 14:27:48;;;;;;;4.72;3.20;;;;;;;;;;5096055;28;20584;-76
2022/12/22 14:30:17;;;;;;;8.32;3.35;;;;;;;;;;5096033;28;20054;-76
2022/12/22 14:32:48;;;;;;;5.00;3.03;;;;;;;;;;5096065;28;20028;-76
2022/12/22 14:35:20;;;;;;;4.60;2.97;;;;;;;;;;5096048;28;20425;-76
2022/12/22 14:38:06;;;;;;;3.72;2.80;;;;;;;;;;5095673;28;20067;-76
2022/12/22 14:40:39;;;;;;;4.28;2.83;;;;;;;;;;5095796;28;20407;-76
2022/12/22 14:43:26;;;;;;;4.65;2.80;;;;;;;;;;5078439;28;20055;-76
2022/12/22 14:46:01;;;;;;;4.00;2.67;;;;;;;;;;5096056;28;20495;-75
2022/12/22 14:48:29;;;;;;;4.55;2.80;;;;;;;;;;5078347;28;20023;-76
2022/12/22 14:50:55;;;;;;;5.47;3.00;;;;;;;;;;5095539;28;20020;-76
2022/12/22 14:53:24;;;;;;;7.20;3.03;;;;;;;;;;5095717;28;20038;-75
2022/12/22 14:55:50;;;;;;;7.05;2.80;;;;;;;;;;5095274;28;20032;-76
2022/12/22 14:58:21;;;;;;;4.70;3.00;;;;;;;;;;5096410;28;20052;-77
2022/12/22 15:00:48;;;;;;;3.58;2.90;;;;;;;;;;5078235;28;20024;-77
2022/12/22 15:03:35;;;;;;;5.68;2.78;;;;;;;;;;5079183;28;20061;-77
2022/12/22 15:06:25;;;;;;;9.95;2.97;;;;;;;;;;5095283;28;20016;-76
2022/12/22 15:09:12;;;;;;;5.05;2.92;;;;;;;;;;5096555;28;20028;-77
2022/12/22 15:11:50;;;;;;;9.45;3.22;;;;;;;;;;5081239;28;20052;-76
2022/12/22 15:14:18;;;;;;;8.13;3.28;;;;;;;;;;5077969;28;20122;-76
2022/12/22 15:16:44;;;;;;;5.43;3.20;;;;;;;;;;5095143;28;20074;-77
2022/12/22 15:19:11;;;;;;;7.30;3.00;;;;;;;;;;5095392;28;20063;-76
2022/12/22 15:21:37;;;;;;;5.75;3.17;;;;;;;;;;5077268;28;20054;-77
2022/12/22 15:24:03;;;;;;;4.70;3.05;;;;;;;;;;5094612;28;20088;-77
2022/12/22 15:26:29;;;;;;;6.20;2.92;;;;;;;;;;5095905;28;20028;-77
2022/12/22 15:28:54;;;;;;;4.25;2.90;;;;;;;;;;5095200;28;20043;-78
2022/12/22 15:31:20;;;;;;;6.22;2.58;;;;;;;;;;5094752;28;20036;-78
2022/12/22 15:33:45;;;;;;;4.10;2.95;;;;;;;;;;5094689;28;20066;-77
2022/12/22 15:36:12;;;;;;;12.20;2.80;;;;;;;;;;5094919;28;20024;-77
2022/12/22 15:38:38;;;;;;;8.65;2.85;;;;;;;;;;5094617;28;20032;-77
2022/12/22 15:41:04;;;;;;;4.18;2.83;;;;;;;;;;5094786;28;20441;-77
2022/12/22 15:43:29;;;;;;;7.82;3.15;;;;;;;;;;5094199;28;20082;-76
2022/12/22 15:45:55;;;;;;;8.23;2.60;;;;;;;;;;5095950;28;20020;-77
2022/12/22 15:48:27;;;;;;;5.15;2.50;;;;;;;;;;5094367;28;20028;-77
2022/12/22 15:50:54;;;;;;;5.80;3.00;;;;;;;;;;5094417;28;20031;-76
2022/12/22 15:53:19;;;;;;;3.92;2.88;;;;;;;;;;5094298;28;20030;-76
2022/12/22 15:55:47;;;;;;;4.07;3.00;;;;;;;;;;5094135;28;20115;-76
2022/12/22 15:58:15;;;;;;;5.15;2.85;;;;;;;;;;5094215;28;20070;-76
2022/12/22 16:00:40;;;;;;;5.55;2.80;;;;;;;;;;5095528;28;20454;-76
2022/12/22 16:03:05;;;;;;;3.85;3.00;;;;;;;;;;5094357;28;20050;-76
2022/12/22 16:05:34;;;;;;;3.42;2.45;;;;;;;;;;5077072;28;20036;-76
2022/12/22 16:08:00;;;;;;;5.18;2.83;;;;;;;;;;5095152;28;20032;-76
2022/12/22 16:10:27;;;;;;;4.10;3.10;;;;;;;;;;5094221;28;20032;-76
2022/12/22 16:12:58;;;;;;;4.60;3.45;;;;;;;;;;5076866;28;20031;-77
2022/12/22 16:15:24;;;;;;;5.93;3.30;;;;;;;;;;5093916;28;20440;-77
2022/12/22 16:17:51;;;;;;;4.00;3.10;;;;;;;;;;5093613;28;20032;-76
2022/12/22 16:20:17;;;;;;;3.92;3.13;;;;;;;;;;5093750;28;20028;-78
2022/12/22 16:22:43;;;;;;;4.38;3.55;;;;;;;;;;5093607;28;20024;-77
2022/12/22 16:25:14;;;;;;;4.57;3.60;;;;;;;;;;5093648;28;20047;-77
2022/12/22 16:27:39;;;;;;;4.93;3.70;;;;;;;;;;5093507;28;20027;-77
2022/12/22 16:30:06;;;;;;;6.25;3.83;;;;;;;;;;5095108;28;20028;-78
2022/12/22 16:32:31;;;;;;;5.43;4.03;;;;;;;;;;5093509;28;20035;-77
2022/12/22 16:35:14;;;;;;;7.07;3.85;;;;;;;;;;5094789;28;20077;-77
2022/12/22 16:37:40;;;;;;;4.78;3.90;;;;;;;;;;5093561;28;20545;-77
2022/12/22 16:40:07;;;;;;;6.28;4.40;;;;;;;;;;5093657;28;20028;-77
2022/12/22 16:42:33;;;;;;;12.80;4.90;;;;;;;;;;5093571;28;20511;-78
2022/12/22 16:44:58;;;;;;;7.00;4.88;;;;;;;;;;5093573;28;20068;-77
2022/12/22 16:47:26;;;;;;;16.77;4.53;;;;;;;;;;5093231;28;20536;-77
2022/12/22 16:49:52;;;;;;;6.88;4.80;;;;;;;;;;5093139;28;20070;-78
2022/12/22 16:52:20;;;;;;;4.95;4.15;;;;;;;;;;5093057;28;20474;-78
2022/12/22 16:54:46;;;;;;;8.35;4.30;;;;;;;;;;5093326;28;20050;-77
2022/12/22 16:57:12;;;;;;;6.45;4.75;;;;;;;;;;5092979;28;20077;-77
2022/12/22 16:59:37;;;;;;;9.00;4.53;;;;;;;;;;5094145;28;20429;-77
2022/12/22 17:02:03;;;;;;;7.97;4.47;;;;;;;;;;5093336;28;20059;-74
2022/12/22 17:04:30;;;;;;;6.25;4.32;;;;;;;;;;5094445;28;20040;-77
2022/12/22 17:06:57;;;;;;;8.65;5.10;;;;;;;;;;5093176;28;20407;-78
2022/12/22 17:09:57;;;;;;;8.55;4.80;;;;;;;;;;5092920;28;20015;-77
2022/12/22 17:12:27;;;;;;;12.48;4.75;;;;;;;;;;5091576;28;20122;-77
2022/12/22 17:14:53;;;;;;;7.15;4.75;;;;;;;;;;5093891;28;20028;-77
2022/12/22 17:17:22;;;;;;;12.82;5.10;;;;;;;;;;5092991;28;20035;-78
2022/12/22 17:19:49;;;;;;;12.80;4.47;;;;;;;;;;5092777;28;20023;-76
2022/12/22 17:22:33;;;;;;;8.57;4.47;;;;;;;;;;5075798;28;20474;-78
2022/12/22 17:25:01;;;;;;;7.50;4.32;;;;;;;;;;5094040;28;20031;-77
2022/12/22 17:27:28;;;;;;;6.43;4.53;;;;;;;;;;5075607;28;20109;-78
2022/12/22 17:29:54;;;;;;;7.70;4.50;;;;;;;;;;5093947;28;20035;-78
2022/12/22 17:32:20;;;;;;;9.25;4.57;;;;;;;;;;5092508;28;20444;-76
2022/12/22 17:34:47;;;;;;;11.05;4.60;;;;;;;;;;5092759;28;20046;-77
2022/12/22 17:37:18;;;;;;;9.43;5.05;;;;;;;;;;5092235;28;20549;-78
2022/12/22 17:39:44;;;;;;;14.40;4.45;;;;;;;;;;5092577;28;20466;-78
2022/12/22 17:42:21;;;;;;;7.93;4.72;;;;;;;;;;5092207;28;20458;-80
2022/12/22 17:44:47;;;;;;;14.88;4.80;;;;;;;;;;5075043;28;20066;-79
2022/12/22 17:47:14;;;;;;;13.77;4.97;;;;;;;;;;5092345;28;20024;-79
2022/12/22 17:49:40;;;;;;;11.85;4.32;;;;;;;;;;5075373;28;20031;-78
2022/12/22 17:52:20;;;;;;;6.85;4.30;;;;;;;;;;5092236;28;20028;-78
2022/12/22 17:54:46;;;;;;;7.05;4.47;;;;;;;;;;5092793;28;20059;-78
2022/12/22 17:57:29;;;;;;;7.22;4.10;;;;;;;;;;5092184;28;20533;-78
2022/12/22 17:59:54;;;;;;;8.23;4.40;;;;;;;;;;5092487;28;20023;-78
2022/12/22 18:02:22;;;;;;;9.95;4.22;;;;;;;;;;5092354;28;20028;-78
2022/12/22 18:04:48;;;;;;;6.25;3.72;;;;;;;;;;5092430;28;20035;-78
2022/12/22 18:07:16;;;;;;;7.47;4.70;;;;;;;;;;5075470;28;20028;-78
2022/12/22 18:09:43;;;;;;;15.00;4.50;;;;;;;;;;5093956;28;20024;-78
2022/12/22 18:12:20;;;;;;;6.15;3.75;;;;;;;;;;5092769;28;20081;-78
2022/12/22 18:14:45;;;;;;;5.93;4.13;;;;;;;;;;5092377;28;20028;-78
2022/12/22 18:17:37;;;;;;;12.35;4.45;;;;;;;;;;5092509;28;20036;-78
2022/12/22 18:20:03;;;;;;;5.32;4.00;;;;;;;;;;5088626;28;20418;-78
2022/12/22 18:22:28;;;;;;;6.50;4.30;;;;;;;;;;5094362;28;20024;-79
2022/12/22 18:24:54;;;;;;;6.35;4.35;;;;;;;;;;5093699;28;20028;-77
2022/12/22 18:27:20;;;;;;;6.10;4.43;;;;;;;;;;5092570;28;20421;-78
2022/12/22 18:29:46;;;;;;;4.68;3.80;;;;;;;;;;5093613;28;20067;-77
2022/12/22 18:32:12;;;;;;;11.15;4.00;;;;;;;;;;5094172;28;20028;-80
2022/12/22 18:34:38;;;;;;;6.57;4.47;;;;;;;;;;5094111;28;20024;-78
2022/12/22 18:37:09;;;;;;;5.28;3.92;;;;;;;;;;5092533;28;20555;-78
2022/12/22 18:39:35;;;;;;;7.20;3.97;;;;;;;;;;5092478;28;20063;-78